createdAt,value
2022-12-01T00:01:35.348Z,75.24
2022-12-01T00:04:03.127Z,75.23
2022-12-01T00:06:31.923Z,75.24
2022-12-01T00:09:20.293Z,74.90
2022-12-01T00:11:50.097Z,75.19
2022-12-01T00:14:17.933Z,75.53
2022-12-01T00:16:46.068Z,75.42
2022-12-01T00:19:15.127Z,75.20
2022-12-01T00:21:42.984Z,75.50
2022-12-01T00:24:12.104Z,75.53
2022-12-01T00:26:40.332Z,75.05
2022-12-01T00:29:09.096Z,75.18
2022-12-01T00:31:37.630Z,74.97
2022-12-01T00:34:11.070Z,74.94
2022-12-01T00:36:39.469Z,74.99
2022-12-01T00:39:09.777Z,75.02
2022-12-01T00:41:37.519Z,75.01
2022-12-01T00:44:05.538Z,74.89
2022-12-01T00:46:33.639Z,74.83
2022-12-01T00:49:01.467Z,75.05
2022-12-01T00:51:31.092Z,74.92
2022-12-01T00:53:59.514Z,75.00
2022-12-01T00:56:27.238Z,74.95
2022-12-01T00:58:55.073Z,75.14
2022-12-01T01:01:50.001Z,75.36
2022-12-01T01:04:21.778Z,75.44
2022-12-01T01:06:51.509Z,75.26
2022-12-01T01:09:22.328Z,75.06
2022-12-01T01:11:53.350Z,75.11
2022-12-01T01:14:22.270Z,75.11
2022-12-01T01:16:51.652Z,75.21
2022-12-01T01:19:20.707Z,75.00
2022-12-01T01:21:52.450Z,75.00
2022-12-01T01:24:25.122Z,75.00
2022-12-01T01:26:56.567Z,75.19
2022-12-01T01:29:26.442Z,75.26
2022-12-01T01:31:54.477Z,75.16
2022-12-01T01:34:22.303Z,75.05
2022-12-01T01:36:50.248Z,75.00
2022-12-01T01:39:17.981Z,75.42
2022-12-01T01:41:45.693Z,74.97
2022-12-01T01:44:47.014Z,75.11
2022-12-01T01:47:17.350Z,74.98
2022-12-01T01:49:45.172Z,74.99
2022-12-01T01:52:14.507Z,74.98
2022-12-01T01:54:46.522Z,74.90
2022-12-01T01:57:20.695Z,75.07
2022-12-01T01:59:54.436Z,74.73
2022-12-01T02:02:22.187Z,74.84
2022-12-01T02:04:54.760Z,75.30
2022-12-01T02:07:22.736Z,75.18
2022-12-01T02:09:50.596Z,75.16
2022-12-01T02:12:30.758Z,75.18
2022-12-01T02:15:20.231Z,75.07
2022-12-01T02:18:07.069Z,75.10
2022-12-01T02:21:02.586Z,75.17
2022-12-01T02:23:42.781Z,74.94
2022-12-01T02:26:31.883Z,74.49
2022-12-01T02:29:38.932Z,74.74
2022-12-01T02:32:28.882Z,74.95
2022-12-01T02:35:05.776Z,75.08
2022-12-01T02:37:47.969Z,74.96
2022-12-01T02:40:42.560Z,75.14
2022-12-01T02:43:19.572Z,74.87
2022-12-01T02:45:58.640Z,74.88
2022-12-01T02:48:38.684Z,74.72
2022-12-01T02:51:12.775Z,74.72
2022-12-01T02:53:40.994Z,74.74
2022-12-01T02:56:12.656Z,74.81
2022-12-01T02:58:40.408Z,74.62
2022-12-01T03:02:05.877Z,74.49
2022-12-01T03:04:46.249Z,74.36
2022-12-01T03:07:27.110Z,74.55
2022-12-01T03:10:26.324Z,74.75
2022-12-01T03:13:05.556Z,74.39
2022-12-01T03:15:59.754Z,74.06
2022-12-01T03:18:39.910Z,74.13
2022-12-01T03:21:15.316Z,74.10
2022-12-01T03:23:48.524Z,74.01
2022-12-01T03:26:21.450Z,74.29
2022-12-01T03:28:54.598Z,74.44
2022-12-01T03:31:32.110Z,74.29
2022-12-01T03:34:06.742Z,74.45
2022-12-01T03:36:43.160Z,74.31
2022-12-01T03:39:20.714Z,74.33
2022-12-01T03:42:04.657Z,74.39
2022-12-01T03:44:44.043Z,74.33
2022-12-01T03:51:04.310Z,74.28
2022-12-01T03:53:43.408Z,74.09
2022-12-01T03:56:13.665Z,74.28
2022-12-01T03:58:45.576Z,74.29
2022-12-01T04:01:13.480Z,74.31
2022-12-01T04:03:41.343Z,74.23
2022-12-01T04:06:09.234Z,74.36
2022-12-01T04:08:37.606Z,74.18
2022-12-01T04:11:30.947Z,74.34
2022-12-01T04:14:00.499Z,74.40
2022-12-01T04:16:28.297Z,74.64
2022-12-01T04:18:56.052Z,74.48
2022-12-01T04:21:24.043Z,74.30
2022-12-01T04:24:00.904Z,74.16
2022-12-01T04:26:34.132Z,74.09
2022-12-01T04:29:05.548Z,73.93
2022-12-01T04:31:33.702Z,73.79
2022-12-01T04:34:01.884Z,73.66
2022-12-01T04:36:32.140Z,73.79
2022-12-01T04:39:00.183Z,73.89
2022-12-01T04:41:28.061Z,73.76
2022-12-01T04:43:56.481Z,73.86
2022-12-01T04:46:24.756Z,73.59
2022-12-01T04:48:52.485Z,73.83
2022-12-01T04:51:21.464Z,73.63
2022-12-01T04:53:50.634Z,73.83
2022-12-01T04:56:18.751Z,74.00
2022-12-01T04:58:46.578Z,73.75
2022-12-01T05:01:17.254Z,73.84
2022-12-01T05:03:49.535Z,74.17
2022-12-01T05:06:20.785Z,74.05
2022-12-01T05:08:49.181Z,73.96
2022-12-01T05:11:18.470Z,74.08
2022-12-01T05:13:47.822Z,73.97
2022-12-01T05:16:18.082Z,73.90
2022-12-01T05:18:50.837Z,74.05
2022-12-01T05:21:18.730Z,73.86
2022-12-01T05:23:46.649Z,73.94
2022-12-01T05:26:14.334Z,73.98
2022-12-01T05:28:42.129Z,74.02
2022-12-01T05:31:09.905Z,74.09
2022-12-01T05:33:37.855Z,74.02
2022-12-01T05:36:05.905Z,74.21
2022-12-01T05:38:33.637Z,74.17
2022-12-01T05:41:01.723Z,74.38
2022-12-01T05:43:29.847Z,74.06
2022-12-01T05:45:58.306Z,74.31
2022-12-01T05:48:26.184Z,74.28
2022-12-01T05:50:54.013Z,74.27
2022-12-01T05:53:21.897Z,74.38
2022-12-01T05:55:54.431Z,74.19
2022-12-01T05:58:22.709Z,74.30
2022-12-01T06:00:50.411Z,74.08
2022-12-01T06:03:18.328Z,74.21
2022-12-01T06:05:46.025Z,74.22
2022-12-01T06:08:13.722Z,74.33
2022-12-01T06:10:41.675Z,74.14
2022-12-01T06:13:09.346Z,74.27
2022-12-01T06:15:37.434Z,74.28
2022-12-01T06:18:05.297Z,74.28
2022-12-01T06:20:33.089Z,73.93
2022-12-01T06:23:00.990Z,74.05
2022-12-01T06:25:28.787Z,74.18
2022-12-01T06:27:59.745Z,73.88
2022-12-01T06:30:27.490Z,73.79
2022-12-01T06:32:55.346Z,73.68
2022-12-01T06:35:23.104Z,73.76
2022-12-01T06:37:53.330Z,73.71
2022-12-01T06:40:21.126Z,73.56
2022-12-01T06:42:49.094Z,73.52
2022-12-01T06:45:16.977Z,73.70
2022-12-01T06:47:45.021Z,73.55
2022-12-01T06:50:12.762Z,73.82
2022-12-01T06:52:40.502Z,73.57
2022-12-01T06:55:08.674Z,73.73
2022-12-01T06:57:36.376Z,73.61
2022-12-01T07:00:05.135Z,73.62
2022-12-01T07:02:33.153Z,73.49
2022-12-01T07:05:00.913Z,73.55
2022-12-01T07:07:28.690Z,73.33
2022-12-01T07:09:56.709Z,73.07
2022-12-01T07:12:24.496Z,72.97
2022-12-01T07:14:52.286Z,72.80
2022-12-01T07:17:20.296Z,72.57
2022-12-01T07:19:48.364Z,72.45
2022-12-01T07:22:16.426Z,72.30
2022-12-01T07:24:44.239Z,72.15
2022-12-01T07:27:11.934Z,72.14
2022-12-01T07:29:39.651Z,72.10
2022-12-01T07:32:07.702Z,72.12
2022-12-01T07:34:35.426Z,72.21
2022-12-01T07:37:03.285Z,72.21
2022-12-01T07:39:31.101Z,72.15
2022-12-01T07:41:58.938Z,72.17
2022-12-01T07:44:26.827Z,72.55
2022-12-01T07:46:55.114Z,72.59
2022-12-01T07:49:22.859Z,72.46
2022-12-01T07:51:50.535Z,72.54
2022-12-01T07:54:20.308Z,72.59
2022-12-01T07:56:48.162Z,72.54
2022-12-01T07:59:15.938Z,72.39
2022-12-01T08:01:45.479Z,72.54
2022-12-01T08:04:13.146Z,72.75
2022-12-01T08:06:40.952Z,72.65
2022-12-01T08:09:08.825Z,72.49
2022-12-01T08:11:36.724Z,72.61
2022-12-01T08:14:04.498Z,72.73
2022-12-01T08:16:32.343Z,72.73
2022-12-01T08:19:00.343Z,72.65
2022-12-01T08:21:30.441Z,72.76
2022-12-01T08:23:59.140Z,72.60
2022-12-01T08:26:27.666Z,72.51
2022-12-01T08:28:56.170Z,72.80
2022-12-01T08:31:35.936Z,72.55
2022-12-01T08:34:07.394Z,72.42
2022-12-01T08:36:36.007Z,72.26
2022-12-01T08:39:04.061Z,71.96
2022-12-01T08:41:32.119Z,71.94
2022-12-01T08:44:01.002Z,71.91
2022-12-01T08:46:33.401Z,71.75
2022-12-01T08:49:02.731Z,71.91
2022-12-01T08:51:31.193Z,71.97
2022-12-01T08:53:59.952Z,71.89
2022-12-01T08:56:31.470Z,72.07
2022-12-01T08:59:00.112Z,72.03
2022-12-01T09:01:28.285Z,71.82
2022-12-01T09:04:08.955Z,71.73
2022-12-01T09:06:45.540Z,71.97
2022-12-01T09:09:16.483Z,72.12
2022-12-01T09:11:45.335Z,72.05
2022-12-01T09:14:15.007Z,72.11
2022-12-01T09:16:44.443Z,72.06
2022-12-01T09:19:13.452Z,72.03
2022-12-01T09:21:43.532Z,72.25
2022-12-01T09:24:13.371Z,72.34
2022-12-01T09:26:42.790Z,72.31
2022-12-01T09:29:13.776Z,72.25
2022-12-01T09:31:42.753Z,72.17
2022-12-01T09:34:17.690Z,72.47
2022-12-01T09:36:46.922Z,72.43
2022-12-01T09:39:18.489Z,72.39
2022-12-01T09:41:54.446Z,72.35
2022-12-01T09:44:23.656Z,72.37
2022-12-01T09:47:10.748Z,72.17
2022-12-01T09:49:48.174Z,72.36
2022-12-01T09:52:19.315Z,72.31
2022-12-01T09:54:47.964Z,72.33
2022-12-01T09:57:29.956Z,72.56
2022-12-01T09:59:59.829Z,72.47
2022-12-01T10:02:42.654Z,72.26
2022-12-01T10:05:20.102Z,72.53
2022-12-01T10:08:05.661Z,72.06
2022-12-01T10:10:36.125Z,72.06
2022-12-01T10:13:16.636Z,71.90
2022-12-01T10:15:52.668Z,71.70
2022-12-01T10:18:53.710Z,71.66
2022-12-01T10:21:59.871Z,71.49
2022-12-01T10:24:49.084Z,71.57
2022-12-01T10:27:32.635Z,71.10
2022-12-01T10:30:16.280Z,71.33
2022-12-01T10:32:56.289Z,71.09
2022-12-01T10:35:36.357Z,71.13
2022-12-01T10:38:07.252Z,71.30
2022-12-01T10:40:35.400Z,71.14
2022-12-01T10:43:03.377Z,71.16
2022-12-01T10:45:37.276Z,70.87
2022-12-01T10:48:23.485Z,71.10
2022-12-01T10:50:54.155Z,71.13
2022-12-01T10:53:36.725Z,71.22
2022-12-01T10:56:17.103Z,71.14
2022-12-01T10:58:48.805Z,70.91
2022-12-01T11:01:32.018Z,71.12
2022-12-01T11:04:06.411Z,70.92
2022-12-01T11:06:37.001Z,70.60
2022-12-01T11:09:20.255Z,70.58
2022-12-01T11:12:01.647Z,70.65
2022-12-01T11:14:49.567Z,70.56
2022-12-01T11:17:41.226Z,70.38
2022-12-01T11:20:27.935Z,70.55
2022-12-01T11:23:20.560Z,70.42
2022-12-01T11:26:05.736Z,70.28
2022-12-01T11:28:36.504Z,70.17
2022-12-01T11:31:11.408Z,70.33
2022-12-01T11:33:50.936Z,70.36
2022-12-01T11:36:27.076Z,70.40
2022-12-01T11:39:04.772Z,70.31
2022-12-01T11:41:44.470Z,70.53
2022-12-01T11:44:49.781Z,70.13
2022-12-01T11:47:24.401Z,70.09
2022-12-01T11:50:06.903Z,69.53
2022-12-01T11:52:45.385Z,69.76
2022-12-01T11:55:16.921Z,69.27
2022-12-01T11:57:48.486Z,69.41
2022-12-01T12:00:20.657Z,69.44
2022-12-01T12:02:48.555Z,69.74
2022-12-01T12:05:46.343Z,69.30
2022-12-01T12:08:57.646Z,69.27
2022-12-01T12:12:15.453Z,69.10
2022-12-01T12:14:43.494Z,69.35
2022-12-01T12:17:33.473Z,69.28
2022-12-01T12:20:12.400Z,69.24
2022-12-01T12:22:59.403Z,69.25
2022-12-01T12:25:52.577Z,69.23
2022-12-01T12:28:23.276Z,68.97
2022-12-01T12:30:54.965Z,69.07
2022-12-01T12:33:55.713Z,69.19
2022-12-01T12:36:29.560Z,69.24
2022-12-01T12:39:28.558Z,68.86
2022-12-01T12:41:57.813Z,69.13
2022-12-01T12:44:43.852Z,69.20
2022-12-01T12:47:14.236Z,69.27
2022-12-01T12:50:06.228Z,69.35
2022-12-01T12:52:54.872Z,69.20
2022-12-01T12:55:28.558Z,69.60
2022-12-01T12:58:11.043Z,69.61
2022-12-01T13:00:56.391Z,69.62
2022-12-01T13:15:22.736Z,69.40
2022-12-01T13:56:46.326Z,69.94
2022-12-01T14:00:21.888Z,69.97
2022-12-01T14:06:47.196Z,69.99
2022-12-01T14:14:27.724Z,70.26
2022-12-01T14:28:29.304Z,70.19
2022-12-01T14:56:13.551Z,70.07
2022-12-01T15:07:23.393Z,70.08
2022-12-01T15:10:36.859Z,70.37
2022-12-01T15:13:30.860Z,70.35
2022-12-01T15:16:05.122Z,70.17
2022-12-01T15:18:36.732Z,70.33
2022-12-01T15:21:27.074Z,70.35
2022-12-01T15:23:54.995Z,70.19
2022-12-01T15:26:27.204Z,70.22
2022-12-01T15:29:38.620Z,70.28
2022-12-01T15:32:12.602Z,70.31
2022-12-01T15:34:43.922Z,70.18
2022-12-01T15:37:15.788Z,70.23
2022-12-01T15:39:47.429Z,70.37
2022-12-01T15:42:28.323Z,70.30
2022-12-01T15:45:22.032Z,70.45
2022-12-01T15:47:52.014Z,70.26
2022-12-01T15:50:31.075Z,70.47
2022-12-01T15:53:05.656Z,70.38
2022-12-01T15:55:36.632Z,70.64
2022-12-01T15:58:09.605Z,70.51
2022-12-01T16:00:37.748Z,70.36
2022-12-01T16:03:05.816Z,70.42
2022-12-01T16:05:36.129Z,70.47
2022-12-01T16:08:27.949Z,70.37
2022-12-01T16:11:17.421Z,70.16
2022-12-01T16:13:49.248Z,70.05
2022-12-01T16:16:42.116Z,70.37
2022-12-01T16:19:10.202Z,70.44
2022-12-01T16:21:52.202Z,70.43
2022-12-01T16:24:28.151Z,70.46
2022-12-01T16:26:59.049Z,70.40
2022-12-01T16:29:29.256Z,70.53
2022-12-01T16:32:25.920Z,70.61
2022-12-01T16:34:54.195Z,70.56
2022-12-01T16:37:23.151Z,70.73
2022-12-01T16:39:50.952Z,70.79
2022-12-01T16:42:21.280Z,70.89
2022-12-01T16:44:50.642Z,70.71
2022-12-01T16:47:21.830Z,70.91
2022-12-01T16:49:50.357Z,70.98
2022-12-01T16:55:28.202Z,70.94
2022-12-01T16:57:56.038Z,70.74
2022-12-01T17:00:24.238Z,70.83
2022-12-01T17:02:52.896Z,70.68
2022-12-01T17:05:21.305Z,70.74
2022-12-01T17:07:49.607Z,70.76
2022-12-01T17:10:17.976Z,70.81
2022-12-01T17:12:45.970Z,70.66
2022-12-01T17:15:15.461Z,70.85
2022-12-01T17:17:44.347Z,70.99
2022-12-01T17:20:12.905Z,70.83
2022-12-01T17:22:40.676Z,70.59
2022-12-01T17:25:12.308Z,70.45
2022-12-01T17:27:41.896Z,70.79
2022-12-01T17:30:10.881Z,70.64
2022-12-01T17:32:39.079Z,70.60
2022-12-01T17:35:07.537Z,70.50
2022-12-01T17:37:36.991Z,70.51
2022-12-01T17:40:05.671Z,70.34
2022-12-01T17:42:33.981Z,70.44
2022-12-01T17:45:02.265Z,70.68
2022-12-01T17:47:30.120Z,70.63
2022-12-01T17:49:58.000Z,70.63
2022-12-01T17:52:28.577Z,70.41
2022-12-01T17:54:56.842Z,70.24
2022-12-01T17:57:24.899Z,70.22
2022-12-01T17:59:52.687Z,70.06
2022-12-01T18:02:20.509Z,70.01
2022-12-01T18:04:48.671Z,70.10
2022-12-01T18:07:16.828Z,69.96
2022-12-01T18:09:44.887Z,70.15
2022-12-01T18:12:12.907Z,70.21
2022-12-01T18:14:40.828Z,70.38
2022-12-01T18:17:08.650Z,70.04
2022-12-01T18:19:36.627Z,70.09
2022-12-01T18:22:04.481Z,69.98
2022-12-01T18:24:32.458Z,70.08
2022-12-01T18:27:00.460Z,69.99
2022-12-01T18:29:28.920Z,69.89
2022-12-01T18:31:58.912Z,69.94
2022-12-01T18:34:29.482Z,69.90
2022-12-01T18:36:57.740Z,69.92
2022-12-01T18:39:25.555Z,69.93
2022-12-01T18:41:53.613Z,69.96
2022-12-01T18:44:21.537Z,69.92
2022-12-01T18:46:49.677Z,69.99
2022-12-01T18:49:17.639Z,69.98
2022-12-01T18:51:45.483Z,69.91
2022-12-01T18:54:14.898Z,70.06
2022-12-01T18:56:43.356Z,69.94
2022-12-01T18:59:13.979Z,69.72
2022-12-01T19:01:44.228Z,69.54
2022-12-01T19:04:14.150Z,69.73
2022-12-01T19:06:42.479Z,69.54
2022-12-01T19:09:12.626Z,69.57
2022-12-01T19:11:41.616Z,69.56
2022-12-01T19:14:16.139Z,69.37
2022-12-01T19:16:44.809Z,69.49
2022-12-01T19:19:12.744Z,69.30
2022-12-01T19:21:40.772Z,69.40
2022-12-01T19:24:08.897Z,69.40
2022-12-01T19:26:36.697Z,69.38
2022-12-01T19:29:04.463Z,69.41
2022-12-01T19:31:33.161Z,69.11
2022-12-01T19:34:04.405Z,69.15
2022-12-01T19:36:32.180Z,69.14
2022-12-01T19:39:02.610Z,69.09
2022-12-01T19:41:32.171Z,69.01
2022-12-01T19:43:59.967Z,68.99
2022-12-01T19:46:28.873Z,68.90
2022-12-01T19:49:02.954Z,68.95
2022-12-01T19:51:37.597Z,69.16
2022-12-01T19:54:08.577Z,69.28
2022-12-01T19:56:37.171Z,69.15
2022-12-01T19:59:07.731Z,69.34
2022-12-01T20:01:35.502Z,69.29
2022-12-01T20:04:04.494Z,69.18
2022-12-01T20:06:35.104Z,69.29
2022-12-01T20:09:05.866Z,69.32
2022-12-01T20:11:35.358Z,69.28
2022-12-01T20:14:04.944Z,69.33
2022-12-01T20:16:32.772Z,69.38
2022-12-01T20:19:03.071Z,69.35
2022-12-01T20:21:43.286Z,69.39
2022-12-01T20:24:14.041Z,69.25
2022-12-01T20:26:48.036Z,69.29
2022-12-01T20:29:22.689Z,69.21
2022-12-01T20:31:52.924Z,69.30
2022-12-01T20:34:25.921Z,69.48
2022-12-01T20:36:55.143Z,69.58
2022-12-01T20:39:23.592Z,69.41
2022-12-01T20:41:51.654Z,69.42
2022-12-01T20:44:19.923Z,69.48
2022-12-01T20:46:48.355Z,69.47
2022-12-01T20:49:17.493Z,69.47
2022-12-01T20:51:46.441Z,69.43
2022-12-01T20:54:31.289Z,69.04
2022-12-01T20:56:59.319Z,69.19
2022-12-01T20:59:28.606Z,69.18
2022-12-01T21:01:56.526Z,69.33
2022-12-01T21:04:24.481Z,69.19
2022-12-01T21:06:56.011Z,69.10
2022-12-01T21:09:24.142Z,69.08
2022-12-01T21:12:11.204Z,69.29
2022-12-01T21:14:47.441Z,69.22
2022-12-01T21:17:28.389Z,68.96
2022-12-01T21:20:05.164Z,69.21
2022-12-01T21:22:34.336Z,69.12
2022-12-01T21:25:15.395Z,69.11
2022-12-01T21:27:43.475Z,69.22
2022-12-01T21:30:18.811Z,69.18
2022-12-01T21:32:47.834Z,69.39
2022-12-01T21:35:17.730Z,69.44
2022-12-01T21:37:46.940Z,69.44
2022-12-01T21:40:23.866Z,69.39
2022-12-01T21:42:51.984Z,69.37
2022-12-01T21:45:32.090Z,69.44
2022-12-01T21:48:11.295Z,69.38
2022-12-01T21:50:39.149Z,69.69
2022-12-01T21:53:37.101Z,69.48
2022-12-01T21:56:05.092Z,69.42
2022-12-01T21:58:38.392Z,69.34
2022-12-01T22:01:35.774Z,69.69
2022-12-01T22:04:14.186Z,69.73
2022-12-01T22:06:46.450Z,69.69
2022-12-01T22:09:26.905Z,69.87
2022-12-01T22:11:57.365Z,69.80
2022-12-01T22:14:29.953Z,69.85
2022-12-01T22:17:21.338Z,69.94
2022-12-01T22:19:59.282Z,69.53
2022-12-01T22:22:30.364Z,69.50
2022-12-01T22:25:25.656Z,69.68
2022-12-01T22:27:54.512Z,69.82
2022-12-01T22:30:23.895Z,69.98
2022-12-01T22:33:03.804Z,69.96
2022-12-01T22:35:33.788Z,70.14
2022-12-01T22:38:08.900Z,69.84
2022-12-01T22:40:51.684Z,70.07
2022-12-01T22:43:24.705Z,69.97
2022-12-01T22:46:11.683Z,70.25
2022-12-01T22:48:43.149Z,69.98
2022-12-01T22:51:14.214Z,70.16
2022-12-01T22:53:44.043Z,70.05
2022-12-01T22:56:39.912Z,70.06
2022-12-01T22:59:15.867Z,70.08
2022-12-01T23:02:02.194Z,70.18
2022-12-01T23:04:39.911Z,70.11
2022-12-01T23:07:29.385Z,70.10
2022-12-01T23:10:01.177Z,70.13
2022-12-01T23:12:32.464Z,70.23
2022-12-01T23:15:24.993Z,70.36
2022-12-01T23:17:53.625Z,70.46
2022-12-01T23:20:34.243Z,70.39
2022-12-01T23:23:14.611Z,70.35
2022-12-01T23:25:44.105Z,70.32
2022-12-01T23:28:13.170Z,70.45
2022-12-01T23:30:43.747Z,70.43
2022-12-01T23:33:16.866Z,70.53
2022-12-01T23:35:48.677Z,70.43
2022-12-01T23:38:20.937Z,70.49
2022-12-01T23:40:50.231Z,70.54
2022-12-01T23:43:45.823Z,70.58
2022-12-01T23:46:20.730Z,70.68
2022-12-01T23:48:52.589Z,70.62
2022-12-01T23:51:25.687Z,70.64
2022-12-01T23:53:55.929Z,70.74
2022-12-01T23:56:26.587Z,70.91
2022-12-01T23:58:56.179Z,70.88
